sensor_id;sensor_type;location;lat;lon;timestamp;pressure;altitude;pressure_sealevel;temperature;humidity
9460;BME280;4768;42.664;23.240;2023-04-08T00:00:26;-9488.78;;;2.77;100.00
9460;BME280;4768;42.664;23.240;2023-04-08T00:02:53;-9487.94;;;2.74;100.00
9460;BME280;4768;42.664;23.240;2023-04-08T00:05:20;-9487.38;;;2.72;100.00
9460;BME280;4768;42.664;23.240;2023-04-08T00:07:46;-9488.38;;;2.76;100.00
9460;BME280;4768;42.664;23.240;2023-04-08T00:10:13;-9487.53;;;2.73;100.00
9460;BME280;4768;42.664;23.240;2023-04-08T00:12:40;-9487.94;;;2.74;100.00
9460;BME280;4768;42.664;23.240;2023-04-08T00:15:08;-9487.25;;;2.72;100.00
9460;BME280;4768;42.664;23.240;2023-04-08T00:17:35;-9487.09;;;2.71;100.00
9460;BME280;4768;42.664;23.240;2023-04-08T00:20:02;-9487.81;;;2.74;100.00
9460;BME280;4768;42.664;23.240;2023-04-08T00:22:29;-9487.38;;;2.72;100.00
9460;BME280;4768;42.664;23.240;2023-04-08T00:24:56;-9485.84;;;2.67;100.00
9460;BME280;4768;42.664;23.240;2023-04-08T00:27:23;-9484.84;;;2.63;100.00
9460;BME280;4768;42.664;23.240;2023-04-08T00:29:50;-9484.28;;;2.61;100.00
9460;BME280;4768;42.664;23.240;2023-04-08T00:32:18;-9483.16;;;2.57;100.00
9460;BME280;4768;42.664;23.240;2023-04-08T00:34:46;-9484.00;;;2.60;100.00
9460;BME280;4768;42.664;23.240;2023-04-08T00:37:12;-9484.00;;;2.60;100.00
9460;BME280;4768;42.664;23.240;2023-04-08T00:39:39;-9484.56;;;2.62;100.00
9460;BME280;4768;42.664;23.240;2023-04-08T00:42:06;-9484.28;;;2.61;100.00
9460;BME280;4768;42.664;23.240;2023-04-08T00:44:34;-9482.72;;;2.56;100.00
9460;BME280;4768;42.664;23.240;2023-04-08T00:47:01;-9484.69;;;2.63;100.00
9460;BME280;4768;42.664;23.240;2023-04-08T00:49:31;-9482.88;;;2.56;100.00
9460;BME280;4768;42.664;23.240;2023-04-08T00:51:58;-9481.75;;;2.52;100.00
9460;BME280;4768;42.664;23.240;2023-04-08T00:54:24;-9484.84;;;2.63;100.00
9460;BME280;4768;42.664;23.240;2023-04-08T00:56:51;-9485.25;;;2.65;100.00
9460;BME280;4768;42.664;23.240;2023-04-08T00:59:18;-9479.19;;;2.43;100.00
9460;BME280;4768;42.664;23.240;2023-04-08T01:01:50;-9480.59;;;2.48;100.00
9460;BME280;4768;42.664;23.240;2023-04-08T01:04:26;-9479.47;;;2.44;100.00
9460;BME280;4768;42.664;23.240;2023-04-08T01:07:01;-9480.03;;;2.46;100.00
9460;BME280;4768;42.664;23.240;2023-04-08T01:09:32;-9481.31;;;2.51;100.00
9460;BME280;4768;42.664;23.240;2023-04-08T01:12:04;-9479.34;;;2.44;100.00
9460;BME280;4768;42.664;23.240;2023-04-08T01:14:34;-9480.59;;;2.48;100.00
9460;BME280;4768;42.664;23.240;2023-04-08T01:17:05;-9481.44;;;2.51;100.00
9460;BME280;4768;42.664;23.240;2023-04-08T01:19:34;-9481.59;;;2.52;100.00
9460;BME280;4768;42.664;23.240;2023-04-08T01:22:10;-9480.88;;;2.49;100.00
9460;BME280;4768;42.664;23.240;2023-04-08T01:24:40;-9481.75;;;2.52;100.00
9460;BME280;4768;42.664;23.240;2023-04-08T01:27:10;-9480.19;;;2.47;100.00
9460;BME280;4768;42.664;23.240;2023-04-08T01:29:38;-9478.63;;;2.41;100.00
9460;BME280;4768;42.664;23.240;2023-04-08T01:32:06;-9478.91;;;2.42;100.00
9460;BME280;4768;42.664;23.240;2023-04-08T01:34:34;-9479.63;;;2.45;100.00
9460;BME280;4768;42.664;23.240;2023-04-08T01:37:03;-9480.03;;;2.46;100.00
9460;BME280;4768;42.664;23.240;2023-04-08T01:39:31;-9479.47;;;2.44;100.00
9460;BME280;4768;42.664;23.240;2023-04-08T01:41:59;-9483.72;;;2.59;100.00
9460;BME280;4768;42.664;23.240;2023-04-08T01:44:28;-9484.69;;;2.63;100.00
9460;BME280;4768;42.664;23.240;2023-04-08T01:46:55;-9485.97;;;2.67;100.00
9460;BME280;4768;42.664;23.240;2023-04-08T01:49:23;-9485.13;;;2.64;100.00
9460;BME280;4768;42.664;23.240;2023-04-08T01:51:50;-9485.97;;;2.67;100.00
9460;BME280;4768;42.664;23.240;2023-04-08T01:54:19;-9486.09;;;2.68;100.00
9460;BME280;4768;42.664;23.240;2023-04-08T01:56:46;-9485.97;;;2.67;100.00
9460;BME280;4768;42.664;23.240;2023-04-08T01:59:14;-9486.25;;;2.68;100.00
9460;BME280;4768;42.664;23.240;2023-04-08T02:01:44;-9486.41;;;2.69;100.00
9460;BME280;4768;42.664;23.240;2023-04-08T02:04:12;-9485.84;;;2.67;100.00
9460;BME280;4768;42.664;23.240;2023-04-08T02:06:38;-9484.28;;;2.61;100.00
9460;BME280;4768;42.664;23.240;2023-04-08T02:09:05;-9484.28;;;2.61;100.00
9460;BME280;4768;42.664;23.240;2023-04-08T02:11:32;-9485.13;;;2.64;100.00
9460;BME280;4768;42.664;23.240;2023-04-08T02:14:00;-9483.44;;;2.58;100.00
9460;BME280;4768;42.664;23.240;2023-04-08T02:16:31;-9483.16;;;2.57;100.00
9460;BME280;4768;42.664;23.240;2023-04-08T02:19:05;-9484.56;;;2.62;100.00
9460;BME280;4768;42.664;23.240;2023-04-08T02:21:37;-9485.13;;;2.64;100.00
9460;BME280;4768;42.664;23.240;2023-04-08T02:24:09;-9485.53;;;2.66;100.00
9460;BME280;4768;42.664;23.240;2023-04-08T02:26:38;-9487.09;;;2.71;100.00
9460;BME280;4768;42.664;23.240;2023-04-08T02:29:11;-9486.41;;;2.69;100.00
9460;BME280;4768;42.664;23.240;2023-04-08T02:31:40;-9485.69;;;2.66;100.00
9460;BME280;4768;42.664;23.240;2023-04-08T02:34:09;-9484.97;;;2.64;100.00
9460;BME280;4768;42.664;23.240;2023-04-08T02:36:36;-9487.53;;;2.73;100.00
9460;BME280;4768;42.664;23.240;2023-04-08T02:39:05;-9487.09;;;2.71;100.00
9460;BME280;4768;42.664;23.240;2023-04-08T02:41:32;-9483.16;;;2.57;100.00
9460;BME280;4768;42.664;23.240;2023-04-08T02:43:59;-9482.44;;;2.55;100.00
9460;BME280;4768;42.664;23.240;2023-04-08T02:46:25;-9485.84;;;2.67;100.00
9460;BME280;4768;42.664;23.240;2023-04-08T02:48:52;-9482.72;;;2.56;100.00
9460;BME280;4768;42.664;23.240;2023-04-08T02:51:21;-9486.25;;;2.68;100.00
9460;BME280;4768;42.664;23.240;2023-04-08T02:53:47;-9486.53;;;2.69;100.00
9460;BME280;4768;42.664;23.240;2023-04-08T02:56:14;-9486.97;;;2.71;100.00
9460;BME280;4768;42.664;23.240;2023-04-08T02:58:41;-9487.09;;;2.71;100.00
9460;BME280;4768;42.664;23.240;2023-04-08T03:01:07;-9487.25;;;2.72;100.00
9460;BME280;4768;42.664;23.240;2023-04-08T03:03:34;-9487.53;;;2.73;100.00
9460;BME280;4768;42.664;23.240;2023-04-08T03:06:01;-9487.09;;;2.71;100.00
9460;BME280;4768;42.664;23.240;2023-04-08T03:08:29;-9486.69;;;2.70;100.00
9460;BME280;4768;42.664;23.240;2023-04-08T03:10:57;-9482.03;;;2.53;100.00
9460;BME280;4768;42.664;23.240;2023-04-08T03:13:23;-9485.69;;;2.66;100.00
9460;BME280;4768;42.664;23.240;2023-04-08T03:15:50;-9484.13;;;2.61;100.00
9460;BME280;4768;42.664;23.240;2023-04-08T03:18:17;-9486.25;;;2.68;100.00
9460;BME280;4768;42.664;23.240;2023-04-08T03:20:44;-9486.41;;;2.69;100.00
9460;BME280;4768;42.664;23.240;2023-04-08T03:23:10;-9485.97;;;2.67;100.00
9460;BME280;4768;42.664;23.240;2023-04-08T03:25:38;-9485.41;;;2.65;100.00
9460;BME280;4768;42.664;23.240;2023-04-08T03:28:05;-9485.84;;;2.67;100.00
9460;BME280;4768;42.664;23.240;2023-04-08T03:30:32;-9484.84;;;2.63;100.00
9460;BME280;4768;42.664;23.240;2023-04-08T03:32:59;-9485.25;;;2.65;100.00
9460;BME280;4768;42.664;23.240;2023-04-08T03:35:27;-9485.53;;;2.66;100.00
9460;BME280;4768;42.664;23.240;2023-04-08T03:37:53;-9485.13;;;2.64;100.00
9460;BME280;4768;42.664;23.240;2023-04-08T03:40:20;-9485.25;;;2.65;100.00
9460;BME280;4768;42.664;23.240;2023-04-08T03:42:48;-9483.00;;;2.57;100.00
9460;BME280;4768;42.664;23.240;2023-04-08T03:45:15;-9484.56;;;2.62;100.00
9460;BME280;4768;42.664;23.240;2023-04-08T03:47:42;-9484.41;;;2.62;100.00
9460;BME280;4768;42.664;23.240;2023-04-08T03:50:09;-9485.13;;;2.64;100.00
9460;BME280;4768;42.664;23.240;2023-04-08T03:52:36;-9485.13;;;2.64;100.00
9460;BME280;4768;42.664;23.240;2023-04-08T03:55:03;-9484.97;;;2.64;100.00
9460;BME280;4768;42.664;23.240;2023-04-08T03:57:29;-9484.97;;;2.64;100.00
9460;BME280;4768;42.664;23.240;2023-04-08T03:59:58;-9484.56;;;2.62;100.00
9460;BME280;4768;42.664;23.240;2023-04-08T04:02:24;-9484.00;;;2.60;100.00
9460;BME280;4768;42.664;23.240;2023-04-08T04:04:51;-9484.97;;;2.64;100.00
9460;BME280;4768;42.664;23.240;2023-04-08T04:07:18;-9485.13;;;2.64;100.00
9460;BME280;4768;42.664;23.240;2023-04-08T04:09:45;-9483.16;;;2.57;100.00
9460;BME280;4768;42.664;23.240;2023-04-08T04:12:11;-9483.44;;;2.58;100.00
9460;BME280;4768;42.664;23.240;2023-04-08T04:14:38;-9483.16;;;2.57;100.00
9460;BME280;4768;42.664;23.240;2023-04-08T04:17:06;-9481.03;;;2.50;100.00
9460;BME280;4768;42.664;23.240;2023-04-08T04:19:33;-9480.59;;;2.48;100.00
9460;BME280;4768;42.664;23.240;2023-04-08T04:21:59;-9476.94;;;2.36;100.00
9460;BME280;4768;42.664;23.240;2023-04-08T04:24:26;-9481.16;;;2.50;100.00
9460;BME280;4768;42.664;23.240;2023-04-08T04:26:53;-9481.59;;;2.52;100.00
9460;BME280;4768;42.664;23.240;2023-04-08T04:29:20;-9481.59;;;2.52;100.00
9460;BME280;4768;42.664;23.240;2023-04-08T04:31:46;-9481.16;;;2.50;100.00
9460;BME280;4768;42.664;23.240;2023-04-08T04:34:14;-9482.59;;;2.55;100.00
9460;BME280;4768;42.664;23.240;2023-04-08T04:36:42;-9483.00;;;2.57;100.00
9460;BME280;4768;42.664;23.240;2023-04-08T04:39:08;-9482.72;;;2.56;100.00
9460;BME280;4768;42.664;23.240;2023-04-08T04:41:35;-9482.88;;;2.56;100.00
9460;BME280;4768;42.664;23.240;2023-04-08T04:44:05;-9482.44;;;2.55;100.00
9460;BME280;4768;42.664;23.240;2023-04-08T04:46:31;-9484.97;;;2.64;100.00
9460;BME280;4768;42.664;23.240;2023-04-08T04:48:58;-9485.53;;;2.66;100.00
9460;BME280;4768;42.664;23.240;2023-04-08T04:51:26;-9486.25;;;2.68;100.00
9460;BME280;4768;42.664;23.240;2023-04-08T04:53:53;-9487.38;;;2.72;100.00
9460;BME280;4768;42.664;23.240;2023-04-08T04:56:20;-9488.22;;;2.75;100.00
9460;BME280;4768;42.664;23.240;2023-04-08T04:58:47;-9488.78;;;2.77;100.00
9460;BME280;4768;42.664;23.240;2023-04-08T05:01:13;-9490.19;;;2.82;100.00
9460;BME280;4768;42.664;23.240;2023-04-08T05:03:40;-9491.75;;;2.88;100.00
9460;BME280;4768;42.664;23.240;2023-04-08T05:06:07;-9492.59;;;2.90;100.00
9460;BME280;4768;42.664;23.240;2023-04-08T05:08:35;-9494.31;;;2.96;100.00
9460;BME280;4768;42.664;23.240;2023-04-08T05:11:02;-9496.97;;;3.06;100.00
9460;BME280;4768;42.664;23.240;2023-04-08T05:13:28;-9497.97;;;3.09;100.00
9460;BME280;4768;42.664;23.240;2023-04-08T05:15:55;-9500.22;;;3.17;100.00
9460;BME280;4768;42.664;23.240;2023-04-08T05:18:22;-9499.94;;;3.16;100.00
9460;BME280;4768;42.664;23.240;2023-04-08T05:20:48;-9502.34;;;3.25;100.00
9460;BME280;4768;42.664;23.240;2023-04-08T05:23:15;-9504.19;;;3.31;100.00
9460;BME280;4768;42.664;23.240;2023-04-08T05:25:43;-9506.16;;;3.38;100.00
9460;BME280;4768;42.664;23.240;2023-04-08T05:28:10;-9506.03;;;3.37;100.00
9460;BME280;4768;42.664;23.240;2023-04-08T05:30:37;-9507.00;;;3.41;100.00
9460;BME280;4768;42.664;23.240;2023-04-08T05:33:03;-9512.66;;;3.61;100.00
9460;BME280;4768;42.664;23.240;2023-04-08T05:35:30;-9515.19;;;3.70;100.00
9460;BME280;4768;42.664;23.240;2023-04-08T05:37:57;-9518.16;;;3.80;100.00
9460;BME280;4768;42.664;23.240;2023-04-08T05:40:23;-9518.72;;;3.82;100.00
9460;BME280;4768;42.664;23.240;2023-04-08T05:42:52;-9521.56;;;3.92;100.00
9460;BME280;4768;42.664;23.240;2023-04-08T05:45:19;-9519.56;;;3.85;100.00
9460;BME280;4768;42.664;23.240;2023-04-08T05:47:45;-9516.59;;;3.75;100.00
9460;BME280;4768;42.664;23.240;2023-04-08T05:50:12;-9520.41;;;3.88;100.00
9460;BME280;4768;42.664;23.240;2023-04-08T05:52:41;-9521.56;;;3.92;100.00
9460;BME280;4768;42.664;23.240;2023-04-08T05:55:09;-9522.25;;;3.94;100.00
9460;BME280;4768;42.664;23.240;2023-04-08T05:57:35;-9519.28;;;3.84;100.00
9460;BME280;4768;42.664;23.240;2023-04-08T06:00:05;-9523.81;;;4.00;100.00
9460;BME280;4768;42.664;23.240;2023-04-08T06:02:32;-9521.69;;;3.92;100.00
9460;BME280;4768;42.664;23.240;2023-04-08T06:04:59;-9521.84;;;3.93;100.00
9460;BME280;4768;42.664;23.240;2023-04-08T06:07:25;-9523.25;;;3.98;100.00
9460;BME280;4768;42.664;23.240;2023-04-08T06:09:52;-9528.75;;;4.17;100.00
9460;BME280;4768;42.664;23.240;2023-04-08T06:12:19;-9521.69;;;3.92;100.00
9460;BME280;4768;42.664;23.240;2023-04-08T06:14:45;-9526.06;;;4.08;100.00
9460;BME280;4768;42.664;23.240;2023-04-08T06:17:14;-9526.22;;;4.08;100.00
9460;BME280;4768;42.664;23.240;2023-04-08T06:19:40;-9532.44;;;4.30;100.00
9460;BME280;4768;42.664;23.240;2023-04-08T06:22:07;-9533.69;;;4.34;100.00
9460;BME280;4768;42.664;23.240;2023-04-08T06:24:34;-9536.94;;;4.46;100.00
9460;BME280;4768;42.664;23.240;2023-04-08T06:27:00;-9543.16;;;4.68;100.00
9460;BME280;4768;42.664;23.240;2023-04-08T06:29:27;-9539.06;;;4.53;100.00
9460;BME280;4768;42.664;23.240;2023-04-08T06:31:54;-9543.44;;;4.69;100.00
9460;BME280;4768;42.664;23.240;2023-04-08T06:34:22;-9548.13;;;4.85;100.00
9460;BME280;4768;42.664;23.240;2023-04-08T06:36:49;-9545.28;;;4.75;100.00
9460;BME280;4768;42.664;23.240;2023-04-08T06:39:16;-9540.75;;;4.59;100.00
9460;BME280;4768;42.664;23.240;2023-04-08T06:41:43;-9537.66;;;4.48;100.00
9460;BME280;4768;42.664;23.240;2023-04-08T06:44:10;-9539.06;;;4.53;100.00
9460;BME280;4768;42.664;23.240;2023-04-08T06:46:37;-9546.69;;;4.80;100.00
9460;BME280;4768;42.664;23.240;2023-04-08T06:49:03;-9545.84;;;4.77;100.00
9460;BME280;4768;42.664;23.240;2023-04-08T06:51:32;-9550.66;;;4.94;100.00
9460;BME280;4768;42.664;23.240;2023-04-08T06:53:59;-9543.44;;;4.69;100.00
9460;BME280;4768;42.664;23.240;2023-04-08T06:56:26;-9544.59;;;4.73;100.00
9460;BME280;4768;42.664;23.240;2023-04-08T06:58:52;-9545.00;;;4.74;100.00
9460;BME280;4768;42.664;23.240;2023-04-08T07:01:19;-9547.28;;;4.82;100.00
9460;BME280;4768;42.664;23.240;2023-04-08T07:03:46;-9545.44;;;4.76;100.00
9460;BME280;4768;42.664;23.240;2023-04-08T07:06:13;-9549.81;;;4.91;100.00
9460;BME280;4768;42.664;23.240;2023-04-08T07:08:41;-9554.06;;;5.06;100.00
9460;BME280;4768;42.664;23.240;2023-04-08T07:11:07;-9555.19;;;5.10;100.00
9460;BME280;4768;42.664;23.240;2023-04-08T07:13:34;-9553.47;;;5.04;100.00
9460;BME280;4768;42.664;23.240;2023-04-08T07:16:01;-9551.50;;;4.97;100.00
9460;BME280;4768;42.664;23.240;2023-04-08T07:18:28;-9549.53;;;4.90;100.00
9460;BME280;4768;42.664;23.240;2023-04-08T07:20:55;-9550.50;;;4.93;100.00
9460;BME280;4768;42.664;23.240;2023-04-08T07:23:22;-9551.78;;;4.98;100.00
9460;BME280;4768;42.664;23.240;2023-04-08T07:25:50;-9555.47;;;5.11;100.00
9460;BME280;4768;42.664;23.240;2023-04-08T07:28:18;-9559.16;;;5.24;100.00
9460;BME280;4768;42.664;23.240;2023-04-08T07:30:45;-9563.94;;;5.40;100.00
9460;BME280;4768;42.664;23.240;2023-04-08T07:33:11;-9564.53;;;5.42;100.00
9460;BME280;4768;42.664;23.240;2023-04-08T07:35:39;-9569.59;;;5.60;100.00
9460;BME280;4768;42.664;23.240;2023-04-08T07:38:06;-9575.69;;;5.81;100.00
9460;BME280;4768;42.664;23.240;2023-04-08T07:40:35;-9578.25;;;5.90;100.00
9460;BME280;4768;42.664;23.240;2023-04-08T07:43:03;-9569.59;;;5.60;100.00
9460;BME280;4768;42.664;23.240;2023-04-08T07:45:30;-9574.41;;;5.77;100.00
9460;BME280;4768;42.664;23.240;2023-04-08T07:47:57;-9575.69;;;5.81;100.00
9460;BME280;4768;42.664;23.240;2023-04-08T07:50:23;-9579.94;;;5.96;100.00
9460;BME280;4768;42.664;23.240;2023-04-08T07:52:50;-9589.28;;;6.29;100.00
9460;BME280;4768;42.664;23.240;2023-04-08T07:55:17;-9585.59;;;6.16;100.00
9460;BME280;4768;42.664;23.240;2023-04-08T07:57:44;-9579.66;;;5.95;100.00
9460;BME280;4768;42.664;23.240;2023-04-08T08:00:13;-9579.09;;;5.93;100.00
9460;BME280;4768;42.664;23.240;2023-04-08T08:02:45;-9580.09;;;5.97;100.00
9460;BME280;4768;42.664;23.240;2023-04-08T08:05:12;-9583.63;;;6.09;100.00
9460;BME280;4768;42.664;23.240;2023-04-08T08:07:39;-9587.56;;;6.23;100.00
9460;BME280;4768;42.664;23.240;2023-04-08T08:10:07;-9599.19;;;6.64;100.00
9460;BME280;4768;42.664;23.240;2023-04-08T08:12:34;-9608.66;;;6.97;100.00
9460;BME280;4768;42.664;23.240;2023-04-08T08:15:00;-9607.81;;;6.94;100.00
9460;BME280;4768;42.664;23.240;2023-04-08T08:17:28;-9607.81;;;6.94;100.00
9460;BME280;4768;42.664;23.240;2023-04-08T08:19:57;-9597.06;;;6.56;100.00
9460;BME280;4768;42.664;23.240;2023-04-08T08:22:24;-9601.88;;;6.73;100.00
9460;BME280;4768;42.664;23.240;2023-04-08T08:24:54;-9609.66;;;7.00;100.00
9460;BME280;4768;42.664;23.240;2023-04-08T08:27:21;-9610.38;;;7.03;100.00
9460;BME280;4768;42.664;23.240;2023-04-08T08:29:48;-9601.44;;;6.72;100.00
9460;BME280;4768;42.664;23.240;2023-04-08T08:32:15;-9604.28;;;6.81;100.00
9460;BME280;4768;42.664;23.240;2023-04-08T08:34:43;-9604.28;;;6.81;100.00
9460;BME280;4768;42.664;23.240;2023-04-08T08:37:10;-9607.38;;;6.92;100.00
9460;BME280;4768;42.664;23.240;2023-04-08T08:39:37;-9612.63;;;7.11;100.00
9460;BME280;4768;42.664;23.240;2023-04-08T08:42:03;-9608.53;;;6.96;100.00
9460;BME280;4768;42.664;23.240;2023-04-08T08:44:30;-9612.22;;;7.09;100.00
9460;BME280;4768;42.664;23.240;2023-04-08T08:46:57;-9609.94;;;7.01;100.00
9460;BME280;4768;42.664;23.240;2023-04-08T08:49:23;-9614.03;;;7.16;100.00
9460;BME280;4768;42.664;23.240;2023-04-08T08:51:53;-9609.81;;;7.01;100.00
9460;BME280;4768;42.664;23.240;2023-04-08T08:54:20;-9610.78;;;7.04;100.00
9460;BME280;4768;42.664;23.240;2023-04-08T08:56:47;-9622.81;;;7.46;100.00
9460;BME280;4768;42.664;23.240;2023-04-08T08:59:14;-9624.81;;;7.53;100.00
9460;BME280;4768;42.664;23.240;2023-04-08T09:01:40;-9630.63;;;7.73;100.00
9460;BME280;4768;42.664;23.240;2023-04-08T09:04:12;-9634.31;;;7.86;100.00
9460;BME280;4768;42.664;23.240;2023-04-08T09:06:41;-9635.56;;;7.91;100.00
9460;BME280;4768;42.664;23.240;2023-04-08T09:09:09;-9638.13;;;8.00;100.00
9460;BME280;4768;42.664;23.240;2023-04-08T09:11:37;-9637.84;;;7.99;100.00
9460;BME280;4768;42.664;23.240;2023-04-08T09:14:05;-9653.00;;;8.52;100.00
9460;BME280;4768;42.664;23.240;2023-04-08T09:16:42;-9651.75;;;8.47;100.00
9460;BME280;4768;42.664;23.240;2023-04-08T09:19:10;-9665.19;;;8.94;100.00
9460;BME280;4768;42.664;23.240;2023-04-08T09:21:38;-9656.28;;;8.63;100.00
9460;BME280;4768;42.664;23.240;2023-04-08T09:24:06;-9672.56;;;9.20;100.00
9460;BME280;4768;42.664;23.240;2023-04-08T09:26:35;-3861.66;;;8.49;100.00
9460;BME280;4768;42.664;23.240;2023-04-08T09:29:03;-7261.28;;;8.22;100.00
9460;BME280;4768;42.664;23.240;2023-04-08T09:31:31;-9653.88;;;8.55;100.00
9460;BME280;4768;42.664;23.240;2023-04-08T09:33:59;-9669.00;;;9.14;100.00
9460;BME280;4768;42.664;23.240;2023-04-08T09:36:27;-2158.84;;;8.59;100.00
9460;BME280;4768;42.664;23.240;2023-04-08T09:38:54;-5227.25;;;8.61;100.00
9460;BME280;4768;42.664;23.240;2023-04-08T09:41:22;-4549.66;;;8.80;100.00
9460;BME280;4768;42.664;23.240;2023-04-08T09:43:52;-2500.44;;;8.62;100.00
9460;BME280;4768;42.664;23.240;2023-04-08T09:46:25;-9651.88;;;8.55;100.00
9460;BME280;4768;42.664;23.240;2023-04-08T09:49:00;-9665.06;;;8.94;100.00
9460;BME280;4768;42.664;23.240;2023-04-08T09:51:32;-9335.25;;;9.39;100.00
9460;BME280;4768;42.664;23.240;2023-04-08T09:54:08;1247.75;;;9.09;100.00
9460;BME280;4768;42.664;23.240;2023-04-08T09:56:40;226.09;;;8.84;100.00
9460;BME280;4768;42.664;23.240;2023-04-08T09:59:13;-2500.69;;;8.64;100.00
9460;BME280;4768;42.664;23.240;2023-04-08T10:01:45;-4563.66;;;9.49;100.00
9460;BME280;4768;42.664;23.240;2023-04-08T10:04:14;217.97;;;9.48;100.00
9460;BME280;4768;42.664;23.240;2023-04-08T10:06:42;2271.03;;;9.29;100.00
9460;BME280;4768;42.664;23.240;2023-04-08T10:09:09;9800.75;;;9.14;100.00
9460;BME280;4768;42.664;23.240;2023-04-08T10:11:37;14952.34;;;9.91;100.00
9460;BME280;4768;42.664;23.240;2023-04-08T10:14:04;18734.72;;;9.98;100.00
9460;BME280;4768;42.664;23.240;2023-04-08T10:16:32;23198.91;;;9.55;100.00
9460;BME280;4768;42.664;23.240;2023-04-08T10:19:00;21812.88;;;9.13;100.00
9460;BME280;4768;42.664;23.240;2023-04-08T10:21:39;17350.59;;;9.42;100.00
9460;BME280;4768;42.664;23.240;2023-04-08T10:24:09;15981.94;;;9.82;100.00
9460;BME280;4768;42.664;23.240;2023-04-08T10:26:40;20091.72;;;9.01;100.00
9460;BME280;4768;42.664;23.240;2023-04-08T10:29:40;16317.47;;;9.22;100.00
9460;BME280;4768;42.664;23.240;2023-04-08T10:32:26;9801.00;;;9.22;100.00
9460;BME280;4768;42.664;23.240;2023-04-08T10:34:54;7403.41;;;9.27;100.00
9460;BME280;4768;42.664;23.240;2023-04-08T10:37:21;5691.47;;;9.36;100.00
9460;BME280;4768;42.664;23.240;2023-04-08T10:39:48;7060.88;;;9.37;100.00
9460;BME280;4768;42.664;23.240;2023-04-08T10:42:17;8774.09;;;9.84;100.00
9460;BME280;4768;42.664;23.240;2023-04-08T10:44:44;12887.50;;;9.39;100.00
9460;BME280;4768;42.664;23.240;2023-04-08T10:47:12;5348.78;;;9.46;100.00
9460;BME280;4768;42.664;23.240;2023-04-08T10:49:39;6375.94;;;9.42;100.00
9460;BME280;4768;42.664;23.240;2023-04-08T10:52:08;8774.34;;;10.05;100.00
9460;BME280;4768;42.664;23.240;2023-04-08T10:54:35;10146.50;;;10.02;100.00
9460;BME280;4768;42.664;23.240;2023-04-08T10:57:03;12199.75;;;9.14;100.00
9460;BME280;4768;42.664;23.240;2023-04-08T10:59:31;6033.91;;;9.31;100.00
9460;BME280;4768;42.664;23.240;2023-04-08T11:01:58;3978.47;;;9.67;100.00
9460;BME280;4768;42.664;23.240;2023-04-08T11:04:26;6718.47;;;9.36;100.00
9460;BME280;4768;42.664;23.240;2023-04-08T11:06:53;7060.31;;;9.74;100.00
9460;BME280;4768;42.664;23.240;2023-04-08T11:09:20;13577.06;;;9.76;100.00
9460;BME280;4768;42.664;23.240;2023-04-08T11:11:47;16333.25;;;10.38;100.00
9460;BME280;4768;42.664;23.240;2023-04-08T11:14:14;26652.25;;;9.86;100.00
9460;BME280;4768;42.664;23.240;2023-04-08T11:16:44;28735.09;;;10.27;100.00
9460;BME280;4768;42.664;23.240;2023-04-08T11:19:12;28391.72;;;10.32;100.00
9460;BME280;4768;42.664;23.240;2023-04-08T11:21:40;25624.34;;;10.08;100.00
9460;BME280;4768;42.664;23.240;2023-04-08T11:24:11;30118.41;;;10.33;100.00
9460;BME280;4768;42.664;23.240;2023-04-08T11:26:38;35626.59;;;9.84;100.00
9460;BME280;4768;42.664;23.240;2023-04-08T11:29:05;29072.44;;;10.04;100.00
9460;BME280;4768;42.664;23.240;2023-04-08T11:31:34;28024.84;;;9.66;100.00
9460;BME280;4768;42.664;23.240;2023-04-08T11:34:01;29397.25;;;9.46;100.00
9460;BME280;4768;42.664;23.240;2023-04-08T11:36:28;27340.72;;;9.83;100.00
9460;BME280;4768;42.664;23.240;2023-04-08T11:38:57;39425.84;;;9.74;100.00
9460;BME280;4768;42.664;23.240;2023-04-08T11:41:23;39476.81;;;10.73;100.00
9460;BME280;4768;42.664;23.240;2023-04-08T11:43:55;70119.00;;;10.80;100.00
9460;BME280;4768;42.664;23.240;2023-04-08T11:46:22;95448.63;;;11.19;100.00
9460;BME280;4768;42.664;23.240;2023-04-08T11:49:13;133586.91;;;10.49;100.00
9460;BME280;4768;42.664;23.240;2023-04-08T11:51:53;141750.13;;;10.34;100.00
9460;BME280;4768;42.664;23.240;2023-04-08T11:54:28;162411.09;;;9.99;100.00
9460;BME280;4768;42.664;23.240;2023-04-08T11:56:56;168905.31;;;9.51;100.00
9460;BME280;4768;42.664;23.240;2023-04-08T11:59:23;169552.38;;;9.86;100.00
9460;BME280;4768;42.664;23.240;2023-04-08T12:01:50;169529.72;;;9.78;100.00
9460;BME280;4768;42.664;23.240;2023-04-08T12:04:17;159915.59;;;10.05;100.00
9460;BME280;4768;42.664;23.240;2023-04-08T12:06:44;169568.34;;;9.92;100.00
9460;BME280;4768;42.664;23.240;2023-04-08T12:09:11;169508.44;;;9.70;100.00
9460;BME280;4768;42.664;23.240;2023-04-08T12:11:39;151542.00;;;9.46;100.00
9460;BME280;4768;42.664;23.240;2023-04-08T12:14:06;129474.75;;;9.51;100.00
9460;BME280;4768;42.664;23.240;2023-04-08T12:16:34;139475.41;;;9.72;100.00
9460;BME280;4768;42.664;23.240;2023-04-08T12:19:00;155213.81;;;9.86;100.00
9460;BME280;4768;42.664;23.240;2023-04-08T12:21:27;153821.34;;;10.02;100.00
9460;BME280;4768;42.664;23.240;2023-04-08T12:23:54;150589.03;;;9.96;100.00
9460;BME280;4768;42.664;23.240;2023-04-08T12:26:21;146333.69;;;10.09;100.00
9460;BME280;4768;42.664;23.240;2023-04-08T12:28:49;147374.03;;;9.96;100.00
9460;BME280;4768;42.664;23.240;2023-04-08T12:31:15;146292.72;;;9.91;100.00
9460;BME280;4768;42.664;23.240;2023-04-08T12:33:42;160885.03;;;9.63;100.00
9460;BME280;4768;42.664;23.240;2023-04-08T12:36:09;162674.06;;;9.62;100.00
9460;BME280;4768;42.664;23.240;2023-04-08T12:38:36;169476.47;;;9.58;100.00
9460;BME280;4768;42.664;23.240;2023-04-08T12:41:02;169475.16;;;9.58;100.00
9460;BME280;4768;42.664;23.240;2023-04-08T12:43:29;169451.13;;;9.49;100.00
9460;BME280;4768;42.664;23.240;2023-04-08T12:45:58;169447.13;;;9.47;100.00
9460;BME280;4768;42.664;23.240;2023-04-08T12:48:25;157571.31;;;9.26;100.00
9460;BME280;4768;42.664;23.240;2023-04-08T12:50:52;110298.38;;;9.16;100.00
9460;BME280;4768;42.664;23.240;2023-04-08T12:53:19;60175.16;;;8.88;100.00
9460;BME280;4768;42.664;23.240;2023-04-08T12:55:46;2619.38;;;8.56;100.00
9460;BME280;4768;42.664;23.240;2023-04-08T12:58:12;-9312.03;;;8.56;100.00
9460;BME280;4768;42.664;23.240;2023-04-08T13:00:41;-9651.16;;;8.45;100.00
9460;BME280;4768;42.664;23.240;2023-04-08T13:03:12;-9655.13;;;8.59;100.00
9460;BME280;4768;42.664;23.240;2023-04-08T13:05:41;-9664.91;;;8.93;100.00
9460;BME280;4768;42.664;23.240;2023-04-08T13:08:08;-9677.38;;;9.37;100.00
9460;BME280;4768;42.664;23.240;2023-04-08T13:10:36;-9669.31;;;9.09;100.00
9460;BME280;4768;42.664;23.240;2023-04-08T13:13:02;-7624.50;;;9.13;100.00